Time;durP1;ratioP1;P1;durP2;ratioP2;P2;SDS_P1;SDS_P2;PMS_P1;PMS_P2;Temp;Humidity;BMP_temperature;BMP_pressure;BME280_temperature;BME280_humidity;BME280_pressure;Samples;Min_cycle;Max_cycle;Signal;HPM_P1;HPM_P2
2023/07/30 00:00:43;;;;;;;6.20;1.70;;;;;;;16.42;100.00;98793.06;109129;1256;72859;-70
2023/07/30 00:03:42;;;;;;;5.70;1.70;;;;;;;16.37;100.00;98790.10;109182;1256;59313;-70
2023/07/30 00:06:29;;;;;;;7.20;2.10;;;;;;;16.34;100.00;98790.85;108974;1258;60079;-69
2023/07/30 00:09:16;;;;;;;6.00;1.70;;;;;;;16.31;100.00;98788.46;109156;1256;71853;-69
2023/07/30 00:12:06;;;;;;;7.10;2.10;;;;;;;16.28;100.00;98785.63;109170;1256;69033;-66
2023/07/30 00:14:52;;;;;;;5.90;1.90;;;;;;;16.24;100.00;98786.11;109183;1256;71292;-69
2023/07/30 00:17:45;;;;;;;6.40;2.00;;;;;;;16.22;100.00;98790.46;109098;1256;58347;-70
2023/07/30 00:20:35;;;;;;;5.60;1.60;;;;;;;16.23;100.00;98799.31;109028;1256;59081;-70
2023/07/30 00:23:23;;;;;;;6.70;1.80;;;;;;;16.24;100.00;98799.98;109007;1256;73384;-69
2023/07/30 00:26:10;;;;;;;6.50;1.80;;;;;;;16.26;100.00;98813.50;109020;1256;68188;-68
2023/07/30 00:28:57;;;;;;;6.40;1.90;;;;;;;16.28;100.00;98816.60;109129;1259;71281;-71
2023/07/30 00:31:43;;;;;;;5.90;1.90;;;;;;;16.29;100.00;98810.58;109020;1256;57988;-70
2023/07/30 00:34:31;;;;;;;7.80;2.10;;;;;;;16.31;100.00;98811.23;109215;1253;58464;-68
2023/07/30 00:37:19;;;;;;;6.80;1.90;;;;;;;16.33;100.00;98809.05;109418;1251;72155;-70
2023/07/30 00:40:07;;;;;;;6.50;2.00;;;;;;;16.34;100.00;98810.69;109489;1254;67838;-71
2023/07/30 00:43:21;;;;;;;7.40;2.40;;;;;;;16.36;100.00;98814.59;109414;1253;72581;-68
2023/07/30 00:46:18;;;;;;;6.00;2.00;;;;;;;16.36;100.00;98804.19;109419;1253;59506;-69
2023/07/30 00:49:27;;;;;;;5.70;2.00;;;;;;;16.38;100.00;98803.12;109596;1253;58715;-69
2023/07/30 00:52:20;;;;;;;6.90;2.20;;;;;;;16.37;100.00;98798.49;109410;1252;71374;-73
2023/07/30 00:55:10;;;;;;;7.30;2.20;;;;;;;16.38;100.00;98800.44;109379;1253;67823;-70
2023/07/30 00:58:00;;;;;;;7.40;2.10;;;;;;;16.34;100.00;98794.75;109554;1253;72564;-69
2023/07/30 01:01:40;;;;;;;;;;;;;;;;;;;;;
2023/07/30 01:05:01;;;;;;;6.40;2.00;;;;;;;16.27;100.00;98800.47;109155;1257;59150;-68
2023/07/30 01:07:47;;;;;;;7.30;1.90;;;;;;;16.24;100.00;98803.32;109091;1258;72087;-69
2023/07/30 01:10:37;;;;;;;6.60;2.00;;;;;;;16.21;100.00;98804.94;109032;1260;66745;-71
2023/07/30 01:13:35;;;;;;;6.40;2.30;;;;;;;16.17;100.00;98812.34;108941;1260;71328;-68
2023/07/30 01:16:56;;;;;;;7.80;2.20;;;;;;;16.14;100.00;98817.60;108836;1261;60436;-73
2023/07/30 01:19:46;;;;;;;6.60;2.10;;;;;;;16.13;100.00;98821.23;108915;1260;60155;-70
2023/07/30 01:22:48;;;;;;;5.50;1.70;;;;;;;16.13;100.00;98818.55;108917;1262;71407;-67
2023/07/30 01:26:08;;;;;;;6.70;2.20;;;;;;;16.12;100.00;98811.80;108860;1262;68825;-67
2023/07/30 01:29:37;;;;;;;6.60;2.00;;;;;;;16.09;100.00;98818.00;108716;1262;71756;-65
2023/07/30 01:32:29;;;;;;;6.70;2.10;;;;;;;16.08;100.00;98824.38;108741;1263;59458;-66
2023/07/30 01:35:26;;;;;;;6.50;2.20;;;;;;;16.09;100.00;98823.02;108694;1262;61297;-69
2023/07/30 01:38:13;;;;;;;6.60;1.70;;;;;;;16.11;100.00;98828.91;108862;1262;70169;-69
2023/07/30 01:40:59;;;;;;;7.40;2.00;;;;;;;16.13;100.00;98840.58;108980;1256;66460;-69
2023/07/30 01:43:46;;;;;;;6.50;2.40;;;;;;;16.14;100.00;98839.83;109061;1256;72644;-69
2023/07/30 01:46:34;;;;;;;8.60;2.10;;;;;;;16.15;100.00;98840.91;109135;1256;59539;-71
2023/07/30 01:49:21;;;;;;;6.20;2.20;;;;;;;16.14;100.00;98835.77;109116;1256;60149;-66
2023/07/30 01:52:07;;;;;;;6.40;2.00;;;;;;;16.15;100.00;98839.79;109146;1256;72528;-68
2023/07/30 01:54:56;;;;;;;7.40;2.40;;;;;;;16.15;100.00;98841.98;109237;1256;66415;-68
2023/07/30 01:57:43;;;;;;;9.10;2.60;;;;;;;16.13;100.00;98837.17;109298;1256;73248;-69
2023/07/30 02:00:31;;;;;;;7.00;2.10;;;;;;;16.10;100.00;98839.52;109027;1259;58101;-69
2023/07/30 02:03:23;;;;;;;7.70;2.40;;;;;;;16.08;100.00;98842.75;109208;1256;60221;-68
2023/07/30 02:06:14;;;;;;;6.80;2.20;;;;;;;16.07;100.00;98849.34;109199;1256;71279;-67
2023/07/30 02:09:00;;;;;;;7.10;2.50;;;;;;;16.06;100.00;98845.33;109190;1256;66639;-69
2023/07/30 02:11:47;;;;;;;7.30;2.90;;;;;;;16.04;100.00;98843.44;109185;1256;72540;-69
2023/07/30 02:14:35;;;;;;;6.80;2.60;;;;;;;16.04;100.00;98847.80;109267;1256;59610;-70
2023/07/30 02:17:22;;;;;;;6.50;2.20;;;;;;;16.02;100.00;98844.10;109108;1256;60226;-68
2023/07/30 02:20:10;;;;;;;7.40;2.30;;;;;;;15.98;100.00;98853.84;109274;1256;71250;-70
2023/07/30 02:22:57;;;;;;;7.10;2.30;;;;;;;15.96;100.00;98848.33;109161;1257;68793;-67
2023/07/30 02:25:45;;;;;;;6.10;2.00;;;;;;;15.95;100.00;98852.59;109206;1256;72610;-68
2023/07/30 02:28:33;;;;;;;6.30;2.40;;;;;;;15.93;100.00;98853.88;109018;1256;58040;-68
2023/07/30 02:31:20;;;;;;;6.50;2.30;;;;;;;15.93;100.00;98851.23;109142;1256;59265;-68
2023/07/30 02:34:07;;;;;;;8.90;2.80;;;;;;;15.91;100.00;98850.42;109242;1255;70836;-69
2023/07/30 02:36:54;;;;;;;6.90;2.60;;;;;;;15.90;100.00;98857.71;109107;1253;66917;-66
2023/07/30 02:39:41;;;;;;;6.40;2.60;;;;;;;15.89;100.00;98855.14;109456;1252;73521;-67
2023/07/30 02:42:29;;;;;;;6.30;2.60;;;;;;;15.87;100.00;98858.91;109515;1252;58052;-66
2023/07/30 02:45:17;;;;;;;6.90;2.60;;;;;;;15.86;100.00;98866.23;109420;1252;59038;-70
2023/07/30 02:48:04;;;;;;;6.30;2.20;;;;;;;15.85;100.00;98863.83;109606;1252;73579;-66
2023/07/30 02:50:51;;;;;;;7.40;2.60;;;;;;;15.85;100.00;98855.54;109438;1252;66110;-67
2023/07/30 02:53:38;;;;;;;7.10;2.60;;;;;;;15.86;100.00;98860.41;109374;1253;72856;-68
2023/07/30 02:56:25;;;;;;;7.00;2.90;;;;;;;15.86;100.00;98865.45;109388;1253;59620;-68
2023/07/30 02:59:11;;;;;;;6.50;2.70;;;;;;;15.85;100.00;98867.72;109400;1252;60241;-69
2023/07/30 03:02:03;;;;;;;7.00;2.90;;;;;;;15.87;100.00;98866.09;109464;1252;71917;-65
2023/07/30 03:04:49;;;;;;;8.50;3.30;;;;;;;15.88;100.00;98866.86;109380;1253;66650;-66
2023/07/30 03:07:39;;;;;;;7.90;3.20;;;;;;;15.89;100.00;98864.55;109579;1252;72515;-66
2023/07/30 03:10:25;;;;;;;7.40;3.10;;;;;;;15.90;100.00;98864.52;109495;1252;58176;-66
2023/07/30 03:13:12;;;;;;;6.90;3.10;;;;;;;15.91;100.00;98865.44;109584;1252;58698;-67
2023/07/30 03:15:59;;;;;;;7.10;3.40;;;;;;;15.91;100.00;98868.88;109548;1252;71182;-65
2023/07/30 03:18:46;;;;;;;10.60;4.10;;;;;;;15.91;100.00;98865.44;109517;1254;68840;-67
2023/07/30 03:21:32;;;;;;;9.10;3.60;;;;;;;15.91;100.00;98870.95;109432;1252;71188;-68
2023/07/30 03:24:20;;;;;;;10.30;4.10;;;;;;;15.93;100.00;98869.69;109451;1253;58230;-66
2023/07/30 03:27:07;;;;;;;9.50;4.10;;;;;;;15.92;100.00;98875.13;109443;1254;61480;-66
2023/07/30 03:29:54;;;;;;;8.50;4.10;;;;;;;15.92;100.00;98881.91;109440;1253;72011;-69
2023/07/30 03:32:41;;;;;;;12.10;6.20;;;;;;;15.93;100.00;98886.11;109320;1254;68708;-67
2023/07/30 03:35:27;;;;;;;10.20;4.70;;;;;;;15.95;100.00;98891.23;109399;1254;71508;-67
2023/07/30 03:38:14;;;;;;;8.70;4.00;;;;;;;15.98;100.00;98885.63;109623;1254;59304;-67
2023/07/30 03:41:01;;;;;;;8.50;3.90;;;;;;;16.04;100.00;98881.28;109448;1252;60293;-67
2023/07/30 03:43:47;;;;;;;9.50;3.80;;;;;;;16.09;100.00;98880.83;109552;1254;72246;-68
2023/07/30 03:46:34;;;;;;;8.50;4.20;;;;;;;16.15;100.00;98881.84;109471;1252;67984;-71
2023/07/30 03:49:21;;;;;;;7.30;3.60;;;;;;;16.25;100.00;98883.20;109491;1252;70323;-67
2023/07/30 03:52:08;;;;;;;8.80;4.40;;;;;;;16.33;100.00;98885.13;109500;1253;58443;-67
2023/07/30 03:54:55;;;;;;;8.40;4.30;;;;;;;16.42;100.00;98885.30;109393;1253;59076;-67
2023/07/30 03:57:41;;;;;;;8.20;3.90;;;;;;;16.50;100.00;98884.08;109506;1252;72582;-67
2023/07/30 04:00:29;;;;;;;10.20;4.70;;;;;;;16.55;100.00;98887.52;109610;1253;69023;-68
2023/07/30 04:03:16;;;;;;;9.80;5.10;;;;;;;16.57;100.00;98884.14;109059;1262;71388;-69
2023/07/30 04:06:04;;;;;;;11.10;5.00;;;;;;;16.64;100.00;98880.96;109169;1256;59129;-68
2023/07/30 04:08:53;;;;;;;10.00;5.00;;;;;;;16.72;100.00;98889.15;109136;1256;60133;-71
2023/07/30 04:11:40;;;;;;;10.40;5.00;;;;;;;16.78;100.00;98891.79;109134;1256;72167;-70
2023/07/30 04:14:27;;;;;;;9.30;5.10;;;;;;;16.87;100.00;98894.21;109195;1256;67323;-69
2023/07/30 04:17:13;;;;;;;10.20;4.70;;;;;;;16.98;100.00;98897.51;109177;1256;71667;-69
2023/07/30 04:20:05;;;;;;;8.50;4.40;;;;;;;17.06;100.00;98901.44;109207;1256;59586;-73
2023/07/30 04:22:55;;;;;;;9.20;5.20;;;;;;;17.14;100.00;98903.64;109123;1256;60034;-69
2023/07/30 04:25:42;;;;;;;10.20;5.20;;;;;;;17.25;100.00;98900.85;109131;1256;71012;-69
2023/07/30 04:28:29;;;;;;;11.70;5.10;;;;;;;17.31;100.00;98901.54;109174;1256;66516;-73
2023/07/30 04:31:15;;;;;;;10.40;5.40;;;;;;;17.35;100.00;98901.70;109032;1256;72897;-69
2023/07/30 04:34:02;;;;;;;9.80;5.30;;;;;;;17.45;100.00;98908.04;109183;1253;59444;-69
2023/07/30 04:36:50;;;;;;;10.60;5.60;;;;;;;17.53;100.00;98906.47;109483;1252;60950;-70
2023/07/30 04:39:37;;;;;;;10.60;5.90;;;;;;;17.60;100.00;98915.69;109383;1253;72287;-69
2023/07/30 04:42:27;;;;;;;12.20;6.20;;;;;;;17.68;100.00;98918.77;109573;1252;67942;-70
2023/07/30 04:45:13;;;;;;;11.50;5.50;;;;;;;17.76;100.00;98921.29;109396;1252;71538;-68
2023/07/30 04:48:03;;;;;;;11.00;5.80;;;;;;;17.85;99.81;98925.20;109408;1254;59313;-67
2023/07/30 04:50:52;;;;;;;11.60;6.00;;;;;;;17.92;99.03;98928.33;109332;1252;58826;-71
2023/07/30 04:53:38;;;;;;;11.40;5.50;;;;;;;17.97;98.41;98928.11;109226;1252;72398;-72
2023/07/30 04:56:26;;;;;;;10.60;6.10;;;;;;;18.00;98.44;98928.40;109488;1252;66403;-70
2023/07/30 04:59:13;;;;;;;13.60;6.40;;;;;;;18.05;98.18;98929.16;109244;1252;73807;-72
2023/07/30 05:02:01;;;;;;;10.90;6.30;;;;;;;18.15;97.89;98930.70;109567;1253;57069;-68
2023/07/30 05:04:48;;;;;;;11.50;5.90;;;;;;;18.23;97.15;98932.12;109422;1253;59589;-67
2023/07/30 05:07:34;;;;;;;15.70;6.30;;;;;;;18.22;96.70;98936.34;109539;1253;70754;-68
2023/07/30 05:10:21;;;;;;;10.30;6.10;;;;;;;18.24;97.06;98945.17;109302;1253;68257;-67
2023/07/30 05:13:09;;;;;;;11.80;6.30;;;;;;;18.27;96.85;98948.71;109292;1254;72451;-69
2023/07/30 05:15:56;;;;;;;11.70;6.00;;;;;;;18.24;96.55;98953.37;109274;1252;59259;-68
2023/07/30 05:18:45;;;;;;;10.90;6.20;;;;;;;18.17;96.36;98954.11;109370;1252;59339;-72
2023/07/30 05:21:33;;;;;;;10.20;5.70;;;;;;;18.16;96.65;98955.11;109430;1253;72187;-70
2023/07/30 05:24:29;;;;;;;11.00;6.40;;;;;;;18.22;96.57;98956.35;109252;1253;68506;-70
2023/07/30 05:27:16;;;;;;;12.40;7.10;;;;;;;18.26;96.67;98959.27;109343;1253;71489;-72
2023/07/30 05:30:07;;;;;;;12.80;6.30;;;;;;;18.28;96.47;98958.08;109092;1257;58548;-73
2023/07/30 05:32:56;;;;;;;11.30;6.00;;;;;;;18.30;95.92;98955.28;109128;1258;59201;-71
2023/07/30 05:35:48;;;;;;;13.40;6.40;;;;;;;18.31;95.53;98956.37;109074;1257;72084;-72
2023/07/30 05:38:36;;;;;;;13.40;7.00;;;;;;;18.31;95.49;98959.39;109124;1257;66345;-74
2023/07/30 05:41:26;;;;;;;11.00;6.30;;;;;;;18.30;95.15;98960.63;109079;1257;72530;-75
2023/07/30 05:44:17;;;;;;;10.80;5.60;;;;;;;18.29;95.15;98964.17;109115;1257;58225;-73
2023/07/30 05:47:04;;;;;;;12.70;6.50;;;;;;;18.27;95.26;98968.59;109187;1257;60078;-75
2023/07/30 05:49:51;;;;;;;13.20;8.20;;;;;;;18.22;95.24;98968.86;109080;1260;70729;-75
2023/07/30 05:52:38;;;;;;;15.10;7.40;;;;;;;18.21;95.54;98969.48;109282;1257;67617;-77
2023/07/30 05:55:26;;;;;;;15.00;7.70;;;;;;;18.23;95.65;98971.39;109181;1257;72781;-75
2023/07/30 05:58:14;;;;;;;11.80;6.40;;;;;;;18.38;95.24;98964.20;109067;1259;58586;-75
2023/07/30 06:01:24;;;;;;;;;;;;;;;;;;;;;
2023/07/30 06:04:21;;;;;;;12.10;6.20;;;;;;;19.06;92.87;98960.23;109465;1253;71401;-76
2023/07/30 06:07:29;;;;;;;13.80;7.00;;;;;;;19.64;89.91;98968.52;109429;1252;66415;-74
2023/07/30 06:10:18;;;;;;;11.00;5.90;;;;;;;20.19;88.13;98965.15;109483;1253;73446;-74
2023/07/30 06:13:19;;;;;;;12.40;5.90;;;;;;;20.75;84.22;98967.95;109409;1253;60638;-74
2023/07/30 06:16:20;;;;;;;11.40;6.00;;;;;;;21.34;82.19;98965.80;109484;1253;60812;-76
2023/07/30 06:19:08;;;;;;;11.00;6.00;;;;;;;21.87;78.53;98970.55;109602;1253;72459;-77
2023/07/30 06:21:55;;;;;;;9.80;5.90;;;;;;;22.05;76.12;98969.73;109478;1253;67608;-76
2023/07/30 06:24:44;;;;;;;11.20;6.10;;;;;;;22.70;74.82;98973.10;109694;1254;72451;-74
2023/07/30 06:27:30;;;;;;;11.00;5.70;;;;;;;23.52;72.34;98970.79;109624;1252;58015;-74
2023/07/30 06:30:17;;;;;;;11.20;5.50;;;;;;;23.71;70.11;98974.95;109632;1253;58954;-78
2023/07/30 06:33:03;;;;;;;10.00;4.90;;;;;;;24.27;67.59;98977.85;109529;1253;72125;-79
2023/07/30 06:35:53;;;;;;;11.50;5.50;;;;;;;24.80;64.45;98978.65;109515;1252;66136;-75
2023/07/30 06:38:39;;;;;;;10.40;5.20;;;;;;;24.33;64.37;98981.94;109607;1254;71185;-75
2023/07/30 06:41:28;;;;;;;10.00;4.80;;;;;;;24.47;64.97;98987.81;109425;1257;56964;-75
2023/07/30 06:44:15;;;;;;;9.60;4.70;;;;;;;24.67;63.72;98987.39;109279;1255;59401;-77
2023/07/30 06:47:04;;;;;;;12.80;5.00;;;;;;;25.11;62.25;98985.77;109369;1253;70588;-77
2023/07/30 06:49:51;;;;;;;9.00;4.30;;;;;;;26.46;57.58;98984.80;109299;1254;67840;-74
2023/07/30 06:52:42;;;;;;;8.50;3.80;;;;;;;27.72;54.25;98979.83;109632;1254;72389;-78
2023/07/30 06:55:31;;;;;;;8.80;3.90;;;;;;;28.56;50.48;98978.04;109420;1257;57989;-79
2023/07/30 06:58:18;;;;;;;8.20;3.40;;;;;;;29.39;47.82;98982.05;109472;1253;60425;-79
2023/07/30 07:01:05;;;;;;;7.30;3.00;;;;;;;29.66;46.22;98980.38;109332;1257;72406;-74
2023/07/30 07:03:52;;;;;;;8.60;3.00;;;;;;;30.28;44.37;98980.81;109273;1254;67846;-77
2023/07/30 07:06:39;;;;;;;7.40;2.80;;;;;;;31.02;42.01;98986.77;109541;1252;71336;-81
2023/07/30 07:09:26;;;;;;;7.70;2.70;;;;;;;31.61;39.74;98992.97;109460;1254;57864;-75
2023/07/30 07:12:14;;;;;;;7.20;2.50;;;;;;;32.18;38.49;98981.36;109535;1254;58869;-75
2023/07/30 07:15:02;;;;;;;7.50;2.70;;;;;;;32.45;37.63;98982.83;109414;1254;72224;-75
2023/07/30 07:17:49;;;;;;;7.00;2.60;;;;;;;31.98;37.92;98986.02;109512;1253;69410;-74
2023/07/30 07:20:38;;;;;;;7.70;2.70;;;;;;;32.74;37.82;98982.05;109395;1254;72704;-75
2023/07/30 07:23:25;;;;;;;7.80;2.70;;;;;;;33.34;35.69;98984.76;109359;1254;57596;-78
2023/07/30 07:26:14;;;;;;;7.80;2.20;;;;;;;33.65;35.24;98982.78;109430;1254;60165;-75
2023/07/30 07:29:03;;;;;;;8.30;2.30;;;;;;;33.58;35.76;98980.73;109364;1254;72293;-77
2023/07/30 07:31:50;;;;;;;6.60;2.40;;;;;;;33.45;35.01;98981.23;109312;1254;66305;-75
2023/07/30 07:34:55;;;;;;;7.70;2.50;;;;;;;33.67;34.94;98977.52;109301;1254;72368;-78
2023/07/30 07:37:46;;;;;;;7.80;2.40;;;;;;;33.57;34.78;98973.23;109466;1254;57763;-76
2023/07/30 07:40:43;;;;;;;7.60;2.30;;;;;;;33.61;34.28;98969.65;109279;1254;62834;-79
2023/07/30 07:43:31;;;;;;;6.80;2.40;;;;;;;33.34;34.48;98966.55;109607;1253;72911;-77
2023/07/30 07:46:22;;;;;;;7.80;2.70;;;;;;;33.64;34.16;98972.95;109520;1251;66381;-76
2023/07/30 07:49:15;;;;;;;7.10;2.90;;;;;;;34.03;33.55;98974.13;109416;1254;74110;-78
2023/07/30 07:52:05;;;;;;;8.10;2.40;;;;;;;33.90;34.48;98971.44;109466;1254;58468;-77
2023/07/30 07:54:52;;;;;;;7.90;2.60;;;;;;;33.44;34.60;98970.33;109494;1252;60161;-79
2023/07/30 07:57:42;;;;;;;8.50;2.70;;;;;;;32.63;35.56;98975.55;109421;1253;73939;-76
2023/07/30 08:00:29;;;;;;;9.20;2.90;;;;;;;32.51;36.27;98974.33;109467;1253;65986;-77
2023/07/30 08:03:27;;;;;;;7.50;2.80;;;;;;;32.95;35.70;98978.23;109262;1253;72845;-77
2023/07/30 08:06:14;;;;;;;6.40;2.40;;;;;;;33.56;34.31;98978.11;109063;1256;57079;-80
2023/07/30 08:09:01;;;;;;;9.30;2.70;;;;;;;34.16;33.03;98977.78;109163;1256;60386;-75
2023/07/30 08:11:48;;;;;;;7.70;2.10;;;;;;;34.29;32.57;98978.36;109073;1256;71074;-73
2023/07/30 08:14:36;;;;;;;6.80;1.90;;;;;;;34.42;32.89;98977.30;109266;1256;67940;-78
2023/07/30 08:17:30;;;;;;;7.50;2.60;;;;;;;34.95;31.56;98974.94;109018;1257;71380;-74
2023/07/30 08:20:18;;;;;;;9.60;2.40;;;;;;;35.02;31.57;98979.09;108965;1265;58346;-76
2023/07/30 08:23:06;;;;;;;7.10;2.40;;;;;;;34.50;32.15;98978.63;109136;1257;59129;-75
2023/07/30 08:25:53;;;;;;;6.70;2.30;;;;;;;34.48;32.20;98980.72;109126;1257;72357;-80
2023/07/30 08:28:40;;;;;;;7.70;2.10;;;;;;;34.43;31.85;98977.58;108960;1260;67713;-76
2023/07/30 08:31:27;;;;;;;5.70;1.90;;;;;;;34.34;31.70;98981.58;108986;1259;71176;-75
2023/07/30 08:34:13;;;;;;;7.20;2.10;;;;;;;34.48;31.72;98985.10;108851;1259;56933;-76
2023/07/30 08:37:00;;;;;;;7.10;2.80;;;;;;;34.67;31.31;98981.76;109050;1256;58728;-75
2023/07/30 08:39:47;;;;;;;6.30;2.20;;;;;;;35.11;30.80;98980.58;109217;1257;72216;-77
2023/07/30 08:42:37;;;;;;;6.50;2.10;;;;;;;35.50;30.44;98988.09;109294;1257;67444;-79
2023/07/30 08:45:24;;;;;;;8.00;1.90;;;;;;;35.78;29.62;98989.63;109315;1257;72442;-77
2023/07/30 08:48:13;;;;;;;6.40;1.90;;;;;;;34.52;30.41;98982.72;109321;1256;59227;-75
2023/07/30 08:51:03;;;;;;;6.90;1.80;;;;;;;33.48;32.32;98979.99;109129;1257;60230;-76
2023/07/30 08:53:51;;;;;;;5.70;1.60;;;;;;;33.89;32.34;98993.69;109109;1257;70928;-77
2023/07/30 08:56:40;;;;;;;6.70;1.80;;;;;;;34.31;31.78;98985.84;109235;1256;66412;-77
2023/07/30 08:59:33;;;;;;;6.20;1.90;;;;;;;34.33;31.32;98984.52;109321;1254;72737;-77
2023/07/30 09:02:47;;;;;;;6.10;1.60;;;;;;;34.75;30.37;98977.58;109391;1253;57075;-75
2023/07/30 09:05:35;;;;;;;6.30;1.70;;;;;;;35.39;29.78;98975.35;109505;1253;60069;-77
2023/07/30 09:08:23;;;;;;;6.00;1.70;;;;;;;35.98;28.94;98978.14;109253;1256;72373;-76
2023/07/30 09:11:11;;;;;;;6.90;1.80;;;;;;;36.09;28.49;98979.65;109162;1257;67872;-76
2023/07/30 09:14:01;;;;;;;8.20;1.90;;;;;;;35.69;28.99;98975.83;109067;1256;73788;-77
2023/07/30 09:16:56;;;;;;;7.80;1.80;;;;;;;35.34;29.21;98981.48;109148;1257;56911;-77
2023/07/30 09:19:44;;;;;;;7.10;1.60;;;;;;;34.79;29.81;98977.05;109205;1256;59304;-75
2023/07/30 09:22:36;;;;;;;7.10;1.90;;;;;;;34.13;30.65;98970.94;109071;1260;70960;-75
2023/07/30 09:25:22;;;;;;;7.80;1.90;;;;;;;33.67;31.24;98977.51;109132;1256;66303;-73
2023/07/30 09:28:11;;;;;;;6.80;1.70;;;;;;;32.92;32.43;98980.08;109193;1257;73517;-73
2023/07/30 09:31:04;;;;;;;6.70;1.80;;;;;;;32.18;33.10;98980.08;109192;1257;56903;-78
2023/07/30 09:34:08;;;;;;;7.30;1.90;;;;;;;31.11;34.89;98982.59;109202;1256;60070;-76
2023/07/30 09:36:56;;;;;;;6.60;1.80;;;;;;;30.67;35.78;98986.42;109206;1256;73232;-75
2023/07/30 09:39:47;;;;;;;6.10;1.80;;;;;;;29.96;36.85;98986.27;109244;1252;67129;-75
2023/07/30 09:42:37;;;;;;;7.10;2.20;;;;;;;29.30;38.14;98986.42;109563;1253;72802;-73
2023/07/30 09:45:26;;;;;;;7.40;2.00;;;;;;;29.74;38.31;98984.93;109349;1253;57496;-78
2023/07/30 09:48:14;;;;;;;6.70;1.70;;;;;;;30.02;38.06;98982.13;109644;1253;59057;-73
2023/07/30 09:51:05;;;;;;;6.80;1.90;;;;;;;30.89;35.55;98982.29;109359;1253;72191;-74
2023/07/30 09:53:53;;;;;;;7.20;1.70;;;;;;;31.83;34.07;98974.90;109389;1252;68020;-75
2023/07/30 09:56:42;;;;;;;6.50;1.70;;;;;;;32.52;32.53;98974.89;109295;1254;72857;-74
2023/07/30 09:59:29;;;;;;;6.10;2.00;;;;;;;33.23;31.37;98974.41;109344;1254;57814;-76
2023/07/30 10:02:17;;;;;;;6.90;1.90;;;;;;;34.27;30.62;98968.27;109427;1253;60357;-74
2023/07/30 10:05:14;;;;;;;6.20;1.60;;;;;;;35.06;29.32;98971.94;109381;1253;70692;-77
2023/07/30 10:08:08;;;;;;;8.30;2.00;;;;;;;35.40;27.94;98973.20;109316;1253;67116;-73
2023/07/30 10:10:57;;;;;;;8.70;1.80;;;;;;;34.84;28.01;98968.16;109383;1252;73256;-77
2023/07/30 10:13:43;;;;;;;7.20;1.70;;;;;;;34.69;29.12;98966.76;109567;1253;58832;-71
2023/07/30 10:16:31;;;;;;;8.00;1.70;;;;;;;34.93;28.40;98974.08;109436;1254;60325;-71
2023/07/30 10:19:23;;;;;;;6.50;1.90;;;;;;;34.10;29.66;98975.97;109207;1252;70879;-68
2023/07/30 10:22:13;;;;;;;6.50;1.80;;;;;;;33.10;31.41;98980.58;109427;1253;65999;-69
2023/07/30 10:25:12;;;;;;;6.50;1.90;;;;;;;32.06;33.00;98989.05;109397;1253;72687;-68
2023/07/30 10:28:01;;;;;;;5.90;1.50;;;;;;;32.02;35.15;98993.47;109343;1252;58872;-69
2023/07/30 10:31:05;;;;;;;5.80;1.50;;;;;;;32.04;35.22;98998.80;109566;1252;60335;-72
2023/07/30 10:33:53;;;;;;;5.40;1.70;;;;;;;31.08;36.62;99007.92;109457;1252;72203;-72
2023/07/30 10:36:43;;;;;;;6.60;1.90;;;;;;;29.75;39.07;99002.20;109467;1251;67888;-70
2023/07/30 10:39:30;;;;;;;7.00;1.80;;;;;;;28.40;42.67;99016.04;109324;1254;73614;-73
2023/07/30 10:42:18;;;;;;;6.10;1.80;;;;;;;26.93;44.93;99035.73;109442;1254;57700;-71
2023/07/30 10:45:07;;;;;;;6.70;2.20;;;;;;;25.67;48.88;99038.95;109426;1252;60232;-70
2023/07/30 10:48:04;;;;;;;5.80;1.70;;;;;;;24.72;52.07;99045.91;109407;1253;70475;-71
2023/07/30 10:50:52;;;;;;;6.60;1.90;;;;;;;23.93;53.55;99053.80;109382;1254;66679;-70
2023/07/30 10:53:48;;;;;;;7.00;1.80;;;;;;;23.47;56.99;99063.67;109380;1253;71428;-69
2023/07/30 10:56:44;;;;;;;6.10;1.70;;;;;;;23.14;60.11;99053.15;109361;1255;58886;-73
2023/07/30 10:59:38;;;;;;;7.10;1.90;;;;;;;22.87;61.49;99052.55;109451;1253;59966;-69
2023/07/30 11:02:25;;;;;;;6.20;2.20;;;;;;;22.82;63.44;99052.06;109391;1254;72082;-70
2023/07/30 11:05:13;;;;;;;7.90;2.20;;;;;;;22.74;64.31;99054.43;109589;1253;67433;-72
2023/07/30 11:08:00;;;;;;;7.50;2.40;;;;;;;22.61;65.96;99059.06;109423;1253;71439;-70
2023/07/30 11:10:47;;;;;;;7.60;2.50;;;;;;;22.42;67.88;99052.02;109427;1253;58949;-67
2023/07/30 11:13:46;;;;;;;7.40;2.10;;;;;;;22.22;68.89;99054.80;109406;1252;60302;-70
2023/07/30 11:16:33;;;;;;;8.60;2.60;;;;;;;22.00;70.86;99055.00;109453;1253;71366;-70
2023/07/30 11:19:23;;;;;;;7.60;2.60;;;;;;;21.78;70.92;99050.34;109405;1253;67974;-70
2023/07/30 11:22:10;;;;;;;7.80;2.40;;;;;;;21.50;71.72;99047.27;109339;1253;72849;-71
2023/07/30 11:24:58;;;;;;;8.40;2.60;;;;;;;21.23;73.93;99059.98;109375;1253;57054;-72
2023/07/30 11:27:49;;;;;;;8.90;2.70;;;;;;;20.96;75.95;99069.00;109262;1253;58850;-68
2023/07/30 11:30:40;;;;;;;9.60;2.70;;;;;;;20.82;76.67;99064.19;109460;1252;70931;-68
2023/07/30 11:33:28;;;;;;;9.60;2.80;;;;;;;20.90;77.56;99063.05;109160;1254;376119;-69
2023/07/30 11:36:21;;;;;;;10.60;2.90;;;;;;;21.28;77.69;99055.95;109515;1253;71319;-71
2023/07/30 11:39:10;;;;;;;7.60;2.80;;;;;;;21.71;76.92;99055.16;109381;1253;58297;-69
2023/07/30 11:41:57;;;;;;;8.30;2.80;;;;;;;22.07;75.65;99053.36;109491;1253;58919;-72
2023/07/30 11:44:44;;;;;;;6.50;2.30;;;;;;;22.57;74.52;99055.95;109272;1253;72498;-73
2023/07/30 11:47:33;;;;;;;9.60;2.60;;;;;;;23.05;73.06;99058.04;109190;1251;66422;-71
2023/07/30 11:50:23;;;;;;;9.20;2.80;;;;;;;23.53;72.28;99058.25;109415;1253;72453;-70
2023/07/30 11:53:10;;;;;;;8.20;2.20;;;;;;;24.28;69.77;99047.04;109245;1253;58781;-70
2023/07/30 11:55:57;;;;;;;7.10;2.50;;;;;;;24.99;67.17;99049.15;109149;1255;61281;-70
2023/07/30 11:58:44;;;;;;;7.50;2.30;;;;;;;25.37;63.89;99049.88;109136;1256;70839;-69
2023/07/30 12:01:36;;;;;;;7.10;2.10;;;;;;;25.59;61.22;99045.83;109156;1257;67689;-68
2023/07/30 12:04:25;;;;;;;7.80;2.30;;;;;;;25.63;59.59;99041.42;109190;1256;72519;-71
2023/07/30 12:07:23;;;;;;;6.80;2.20;;;;;;;25.65;61.43;99036.65;109328;1256;57111;-71
2023/07/30 12:10:13;;;;;;;6.80;2.30;;;;;;;25.63;61.19;99038.50;109118;1255;59348;-68
2023/07/30 12:13:00;;;;;;;7.80;2.40;;;;;;;25.53;60.26;99037.50;109152;1255;72096;-68
2023/07/30 12:15:52;;;;;;;6.10;2.30;;;;;;;25.43;60.81;99030.13;109356;1256;66617;-71
2023/07/30 12:18:40;;;;;;;7.50;2.30;;;;;;;25.37;61.05;99034.40;109138;1255;72686;-72
2023/07/30 12:21:27;;;;;;;8.00;2.50;;;;;;;25.30;58.82;99039.78;109212;1254;58205;-74
2023/07/30 12:24:17;;;;;;;6.50;2.40;;;;;;;25.38;56.87;99037.05;109226;1256;60074;-72
2023/07/30 12:27:04;;;;;;;6.30;2.20;;;;;;;25.63;56.45;99032.46;109175;1255;70484;-68
2023/07/30 12:29:51;;;;;;;6.90;2.30;;;;;;;25.97;56.56;99032.54;109185;1256;67652;-71
2023/07/30 12:32:37;;;;;;;7.00;2.30;;;;;;;26.23;56.99;99025.15;109232;1252;72734;-67
2023/07/30 12:35:24;;;;;;;8.60;2.60;;;;;;;26.47;56.81;99033.88;109254;1253;56900;-71
2023/07/30 12:38:11;;;;;;;7.20;2.40;;;;;;;26.59;56.28;99031.33;109227;1253;60169;-73
2023/07/30 12:40:57;;;;;;;6.20;2.10;;;;;;;26.56;54.18;99026.31;109571;1253;72194;-72
2023/07/30 12:43:43;;;;;;;8.80;2.30;;;;;;;26.58;53.43;99029.29;109605;1251;67628;-71
2023/07/30 12:46:32;;;;;;;7.80;2.50;;;;;;;26.48;52.58;99031.71;109291;1253;71712;-70
2023/07/30 12:49:19;;;;;;;7.70;2.60;;;;;;;26.38;53.12;99025.33;109142;1255;56931;-71
2023/07/30 12:52:06;;;;;;;9.40;2.50;;;;;;;26.28;52.46;99022.13;109124;1257;60543;-69
2023/07/30 12:54:54;;;;;;;6.70;2.20;;;;;;;26.04;54.12;99023.30;109170;1255;72277;-70
2023/07/30 12:57:40;;;;;;;7.10;2.40;;;;;;;25.79;53.84;99024.95;109202;1255;68339;-69
2023/07/30 13:00:28;;;;;;;6.60;2.20;;;;;;;25.65;55.05;99032.17;109111;1255;73215;-71
2023/07/30 13:03:16;;;;;;;6.60;2.10;;;;;;;25.55;54.98;99028.16;109075;1255;56990;-71
2023/07/30 13:06:05;;;;;;;6.10;2.00;;;;;;;25.53;54.79;99029.50;109217;1256;58857;-68
2023/07/30 13:08:54;;;;;;;6.10;2.10;;;;;;;25.59;53.17;99024.20;109245;1255;70923;-73